sensor_id;sensor_type;location;lat;lon;timestamp;P1;durP1;ratioP1;P2;durP2;ratioP2
11653;SDS011;5883;48.818;9.114;2023-07-20T00:02:38;4.15;;;1.70;;
11653;SDS011;5883;48.818;9.114;2023-07-20T00:05:23;4.20;;;1.90;;
11653;SDS011;5883;48.818;9.114;2023-07-20T00:08:09;2.47;;;1.75;;
11653;SDS011;5883;48.818;9.114;2023-07-20T00:10:54;5.03;;;2.05;;
11653;SDS011;5883;48.818;9.114;2023-07-20T00:13:39;2.30;;;1.70;;
11653;SDS011;5883;48.818;9.114;2023-07-20T00:16:24;2.00;;;1.60;;
11653;SDS011;5883;48.818;9.114;2023-07-20T00:19:10;1.80;;;1.50;;
11653;SDS011;5883;48.818;9.114;2023-07-20T00:21:56;4.25;;;1.98;;
11653;SDS011;5883;48.818;9.114;2023-07-20T00:24:41;2.50;;;1.80;;
11653;SDS011;5883;48.818;9.114;2023-07-20T00:27:25;3.40;;;1.80;;
11653;SDS011;5883;48.818;9.114;2023-07-20T00:30:11;2.78;;;1.40;;
11653;SDS011;5883;48.818;9.114;2023-07-20T00:32:56;1.85;;;1.55;;
11653;SDS011;5883;48.818;9.114;2023-07-20T00:35:43;10.57;;;1.60;;
11653;SDS011;5883;48.818;9.114;2023-07-20T00:38:27;2.60;;;1.50;;
11653;SDS011;5883;48.818;9.114;2023-07-20T00:41:12;2.67;;;1.70;;
11653;SDS011;5883;48.818;9.114;2023-07-20T00:43:58;1.80;;;1.40;;
11653;SDS011;5883;48.818;9.114;2023-07-20T00:46:43;3.42;;;1.65;;
11653;SDS011;5883;48.818;9.114;2023-07-20T00:49:28;3.50;;;1.30;;
11653;SDS011;5883;48.818;9.114;2023-07-20T00:52:14;2.35;;;1.88;;
11653;SDS011;5883;48.818;9.114;2023-07-20T00:54:59;2.80;;;1.25;;
11653;SDS011;5883;48.818;9.114;2023-07-20T00:57:45;2.10;;;1.83;;
11653;SDS011;5883;48.818;9.114;2023-07-20T01:00:30;2.25;;;1.60;;
11653;SDS011;5883;48.818;9.114;2023-07-20T01:03:15;3.58;;;1.50;;
11653;SDS011;5883;48.818;9.114;2023-07-20T01:06:02;3.72;;;1.60;;
11653;SDS011;5883;48.818;9.114;2023-07-20T01:08:54;2.28;;;1.55;;
11653;SDS011;5883;48.818;9.114;2023-07-20T01:11:48;2.03;;;1.63;;
11653;SDS011;5883;48.818;9.114;2023-07-20T01:14:38;2.88;;;1.48;;
11653;SDS011;5883;48.818;9.114;2023-07-20T01:17:23;4.93;;;1.90;;
11653;SDS011;5883;48.818;9.114;2023-07-20T01:20:09;5.00;;;1.70;;
11653;SDS011;5883;48.818;9.114;2023-07-20T01:23:00;2.85;;;1.77;;
11653;SDS011;5883;48.818;9.114;2023-07-20T01:25:56;6.63;;;1.70;;
11653;SDS011;5883;48.818;9.114;2023-07-20T01:28:57;2.63;;;1.67;;
11653;SDS011;5883;48.818;9.114;2023-07-20T01:31:48;3.15;;;1.60;;
11653;SDS011;5883;48.818;9.114;2023-07-20T01:34:34;2.92;;;1.83;;
11653;SDS011;5883;48.818;9.114;2023-07-20T01:37:20;2.17;;;1.60;;
11653;SDS011;5883;48.818;9.114;2023-07-20T01:40:09;4.53;;;1.63;;
11653;SDS011;5883;48.818;9.114;2023-07-20T01:42:54;2.78;;;1.75;;
11653;SDS011;5883;48.818;9.114;2023-07-20T01:45:40;1.80;;;1.50;;
11653;SDS011;5883;48.818;9.114;2023-07-20T01:48:26;3.90;;;1.95;;
11653;SDS011;5883;48.818;9.114;2023-07-20T01:51:11;3.00;;;1.90;;
11653;SDS011;5883;48.818;9.114;2023-07-20T01:53:56;2.95;;;1.75;;
11653;SDS011;5883;48.818;9.114;2023-07-20T01:56:42;4.22;;;1.95;;
11653;SDS011;5883;48.818;9.114;2023-07-20T01:59:27;2.22;;;1.88;;
11653;SDS011;5883;48.818;9.114;2023-07-20T02:02:11;3.13;;;1.90;;
11653;SDS011;5883;48.818;9.114;2023-07-20T02:04:58;3.63;;;1.98;;
11653;SDS011;5883;48.818;9.114;2023-07-20T02:07:43;4.20;;;1.80;;
11653;SDS011;5883;48.818;9.114;2023-07-20T02:10:28;6.05;;;1.50;;
11653;SDS011;5883;48.818;9.114;2023-07-20T02:13:13;5.93;;;2.05;;
11653;SDS011;5883;48.818;9.114;2023-07-20T02:15:58;3.33;;;1.90;;
11653;SDS011;5883;48.818;9.114;2023-07-20T02:18:43;3.65;;;1.95;;
11653;SDS011;5883;48.818;9.114;2023-07-20T02:21:30;2.53;;;1.90;;
11653;SDS011;5883;48.818;9.114;2023-07-20T02:24:15;2.45;;;1.80;;
11653;SDS011;5883;48.818;9.114;2023-07-20T02:27:00;2.80;;;2.10;;
11653;SDS011;5883;48.818;9.114;2023-07-20T02:29:45;6.68;;;2.10;;
11653;SDS011;5883;48.818;9.114;2023-07-20T02:32:30;2.30;;;1.73;;
11653;SDS011;5883;48.818;9.114;2023-07-20T02:35:15;2.85;;;1.63;;
11653;SDS011;5883;48.818;9.114;2023-07-20T02:38:02;6.40;;;2.17;;
11653;SDS011;5883;48.818;9.114;2023-07-20T02:40:48;3.90;;;1.73;;
11653;SDS011;5883;48.818;9.114;2023-07-20T02:43:33;2.65;;;1.60;;
11653;SDS011;5883;48.818;9.114;2023-07-20T02:46:18;4.35;;;1.95;;
11653;SDS011;5883;48.818;9.114;2023-07-20T02:49:03;4.22;;;1.92;;
11653;SDS011;5883;48.818;9.114;2023-07-20T02:51:49;3.00;;;1.75;;
11653;SDS011;5883;48.818;9.114;2023-07-20T02:54:35;3.83;;;2.08;;
11653;SDS011;5883;48.818;9.114;2023-07-20T02:57:20;2.58;;;1.70;;
11653;SDS011;5883;48.818;9.114;2023-07-20T03:00:06;2.55;;;1.77;;
11653;SDS011;5883;48.818;9.114;2023-07-20T03:02:51;4.60;;;2.40;;
11653;SDS011;5883;48.818;9.114;2023-07-20T03:05:40;2.53;;;1.88;;
11653;SDS011;5883;48.818;9.114;2023-07-20T03:08:25;2.90;;;2.00;;
11653;SDS011;5883;48.818;9.114;2023-07-20T03:11:11;2.60;;;2.00;;
11653;SDS011;5883;48.818;9.114;2023-07-20T03:13:56;2.55;;;1.92;;
11653;SDS011;5883;48.818;9.114;2023-07-20T03:16:41;2.08;;;1.70;;
11653;SDS011;5883;48.818;9.114;2023-07-20T03:19:26;3.25;;;1.88;;
11653;SDS011;5883;48.818;9.114;2023-07-20T03:22:11;5.65;;;2.20;;
11653;SDS011;5883;48.818;9.114;2023-07-20T03:24:56;3.78;;;1.83;;
11653;SDS011;5883;48.818;9.114;2023-07-20T03:27:43;6.78;;;2.00;;
11653;SDS011;5883;48.818;9.114;2023-07-20T03:30:28;3.33;;;1.75;;
11653;SDS011;5883;48.818;9.114;2023-07-20T03:33:13;2.88;;;1.50;;
11653;SDS011;5883;48.818;9.114;2023-07-20T03:35:58;3.63;;;2.10;;
11653;SDS011;5883;48.818;9.114;2023-07-20T03:38:43;3.08;;;2.15;;
11653;SDS011;5883;48.818;9.114;2023-07-20T03:41:28;3.33;;;1.88;;
11653;SDS011;5883;48.818;9.114;2023-07-20T03:44:15;2.33;;;1.80;;
11653;SDS011;5883;48.818;9.114;2023-07-20T03:47:00;2.35;;;2.00;;
11653;SDS011;5883;48.818;9.114;2023-07-20T03:49:45;2.90;;;1.77;;
11653;SDS011;5883;48.818;9.114;2023-07-20T03:52:30;3.20;;;2.42;;
11653;SDS011;5883;48.818;9.114;2023-07-20T03:55:15;4.63;;;2.22;;
11653;SDS011;5883;48.818;9.114;2023-07-20T03:58:00;3.33;;;2.00;;
11653;SDS011;5883;48.818;9.114;2023-07-20T04:00:47;2.72;;;2.00;;
11653;SDS011;5883;48.818;9.114;2023-07-20T04:03:33;3.53;;;1.95;;
11653;SDS011;5883;48.818;9.114;2023-07-20T04:06:19;3.35;;;2.22;;
11653;SDS011;5883;48.818;9.114;2023-07-20T04:09:04;3.75;;;2.13;;
11653;SDS011;5883;48.818;9.114;2023-07-20T04:11:49;3.80;;;2.13;;
11653;SDS011;5883;48.818;9.114;2023-07-20T04:14:34;3.17;;;1.90;;
11653;SDS011;5883;48.818;9.114;2023-07-20T04:17:21;4.75;;;2.33;;
11653;SDS011;5883;48.818;9.114;2023-07-20T04:20:06;2.58;;;1.80;;
11653;SDS011;5883;48.818;9.114;2023-07-20T04:22:52;2.83;;;1.77;;
11653;SDS011;5883;48.818;9.114;2023-07-20T04:25:38;4.47;;;2.20;;
11653;SDS011;5883;48.818;9.114;2023-07-20T04:28:24;4.43;;;1.80;;
11653;SDS011;5883;48.818;9.114;2023-07-20T04:31:09;2.75;;;1.80;;
11653;SDS011;5883;48.818;9.114;2023-07-20T04:33:56;2.42;;;1.80;;
11653;SDS011;5883;48.818;9.114;2023-07-20T04:36:41;3.58;;;1.67;;
11653;SDS011;5883;48.818;9.114;2023-07-20T04:39:26;2.88;;;1.77;;
11653;SDS011;5883;48.818;9.114;2023-07-20T04:42:12;2.88;;;1.63;;
11653;SDS011;5883;48.818;9.114;2023-07-20T04:44:57;2.70;;;1.67;;
11653;SDS011;5883;48.818;9.114;2023-07-20T04:47:42;2.40;;;1.73;;
11653;SDS011;5883;48.818;9.114;2023-07-20T04:50:28;2.80;;;2.00;;
11653;SDS011;5883;48.818;9.114;2023-07-20T04:53:13;2.72;;;1.80;;
11653;SDS011;5883;48.818;9.114;2023-07-20T04:55:58;3.63;;;1.58;;
11653;SDS011;5883;48.818;9.114;2023-07-20T04:58:43;3.58;;;1.70;;
11653;SDS011;5883;48.818;9.114;2023-07-20T05:01:29;3.08;;;1.80;;
11653;SDS011;5883;48.818;9.114;2023-07-20T05:04:14;3.72;;;1.92;;
11653;SDS011;5883;48.818;9.114;2023-07-20T05:07:00;3.85;;;1.67;;
11653;SDS011;5883;48.818;9.114;2023-07-20T05:09:45;2.10;;;1.70;;
11653;SDS011;5883;48.818;9.114;2023-07-20T05:12:30;2.58;;;1.83;;
11653;SDS011;5883;48.818;9.114;2023-07-20T05:15:15;7.05;;;1.92;;
11653;SDS011;5883;48.818;9.114;2023-07-20T05:18:00;2.53;;;1.98;;
11653;SDS011;5883;48.818;9.114;2023-07-20T05:20:46;3.17;;;1.73;;
11653;SDS011;5883;48.818;9.114;2023-07-20T05:23:32;3.10;;;1.75;;
11653;SDS011;5883;48.818;9.114;2023-07-20T05:26:18;2.67;;;1.98;;
11653;SDS011;5883;48.818;9.114;2023-07-20T05:29:03;2.67;;;1.85;;
11653;SDS011;5883;48.818;9.114;2023-07-20T05:31:48;5.38;;;1.67;;
11653;SDS011;5883;48.818;9.114;2023-07-20T05:34:35;2.60;;;1.65;;
11653;SDS011;5883;48.818;9.114;2023-07-20T05:37:20;3.28;;;1.60;;
11653;SDS011;5883;48.818;9.114;2023-07-20T05:40:07;4.03;;;1.67;;
11653;SDS011;5883;48.818;9.114;2023-07-20T05:42:54;2.40;;;1.40;;
11653;SDS011;5883;48.818;9.114;2023-07-20T05:45:41;3.38;;;1.40;;
11653;SDS011;5883;48.818;9.114;2023-07-20T05:48:26;5.30;;;1.25;;
11653;SDS011;5883;48.818;9.114;2023-07-20T05:51:11;2.53;;;1.63;;
11653;SDS011;5883;48.818;9.114;2023-07-20T05:53:59;4.60;;;1.75;;
11653;SDS011;5883;48.818;9.114;2023-07-20T05:56:45;3.00;;;1.40;;
11653;SDS011;5883;48.818;9.114;2023-07-20T05:59:31;2.85;;;1.40;;
11653;SDS011;5883;48.818;9.114;2023-07-20T06:02:16;2.63;;;1.55;;
11653;SDS011;5883;48.818;9.114;2023-07-20T06:05:03;1.58;;;1.05;;
11653;SDS011;5883;48.818;9.114;2023-07-20T06:07:48;2.13;;;1.42;;
11653;SDS011;5883;48.818;9.114;2023-07-20T06:10:38;2.90;;;1.92;;
11653;SDS011;5883;48.818;9.114;2023-07-20T06:13:25;3.00;;;1.17;;
11653;SDS011;5883;48.818;9.114;2023-07-20T06:16:10;1.48;;;1.00;;
11653;SDS011;5883;48.818;9.114;2023-07-20T06:18:56;3.40;;;1.20;;
11653;SDS011;5883;48.818;9.114;2023-07-20T06:21:41;2.33;;;1.10;;
11653;SDS011;5883;48.818;9.114;2023-07-20T06:24:26;3.33;;;1.33;;
11653;SDS011;5883;48.818;9.114;2023-07-20T06:27:12;2.13;;;1.25;;
11653;SDS011;5883;48.818;9.114;2023-07-20T06:29:59;2.83;;;1.30;;
11653;SDS011;5883;48.818;9.114;2023-07-20T06:32:44;4.18;;;1.48;;
11653;SDS011;5883;48.818;9.114;2023-07-20T06:35:29;4.80;;;1.30;;
11653;SDS011;5883;48.818;9.114;2023-07-20T06:38:14;2.58;;;1.15;;
11653;SDS011;5883;48.818;9.114;2023-07-20T06:40:59;12.77;;;1.17;;
11653;SDS011;5883;48.818;9.114;2023-07-20T06:43:44;2.50;;;1.30;;
11653;SDS011;5883;48.818;9.114;2023-07-20T06:46:31;2.75;;;1.38;;
11653;SDS011;5883;48.818;9.114;2023-07-20T06:49:23;3.78;;;1.20;;
11653;SDS011;5883;48.818;9.114;2023-07-20T06:52:08;2.83;;;1.20;;
11653;SDS011;5883;48.818;9.114;2023-07-20T06:54:53;3.65;;;1.70;;
11653;SDS011;5883;48.818;9.114;2023-07-20T06:57:38;4.32;;;1.30;;
11653;SDS011;5883;48.818;9.114;2023-07-20T07:00:23;2.53;;;1.48;;
11653;SDS011;5883;48.818;9.114;2023-07-20T07:03:10;1.73;;;1.20;;
11653;SDS011;5883;48.818;9.114;2023-07-20T07:05:56;2.92;;;1.23;;
11653;SDS011;5883;48.818;9.114;2023-07-20T07:08:41;8.95;;;1.88;;
11653;SDS011;5883;48.818;9.114;2023-07-20T07:11:28;1.35;;;1.10;;
11653;SDS011;5883;48.818;9.114;2023-07-20T07:14:13;2.53;;;1.38;;
11653;SDS011;5883;48.818;9.114;2023-07-20T07:16:59;2.83;;;1.10;;
11653;SDS011;5883;48.818;9.114;2023-07-20T07:19:45;5.85;;;1.25;;
11653;SDS011;5883;48.818;9.114;2023-07-20T07:22:31;3.28;;;1.15;;
11653;SDS011;5883;48.818;9.114;2023-07-20T07:25:16;2.65;;;1.35;;
11653;SDS011;5883;48.818;9.114;2023-07-20T07:28:01;4.97;;;1.40;;
11653;SDS011;5883;48.818;9.114;2023-07-20T07:30:46;2.55;;;1.23;;
11653;SDS011;5883;48.818;9.114;2023-07-20T07:33:31;2.55;;;1.10;;
11653;SDS011;5883;48.818;9.114;2023-07-20T07:36:17;1.48;;;1.35;;
11653;SDS011;5883;48.818;9.114;2023-07-20T07:39:03;2.42;;;1.17;;
11653;SDS011;5883;48.818;9.114;2023-07-20T07:41:49;1.92;;;1.20;;
11653;SDS011;5883;48.818;9.114;2023-07-20T07:44:34;2.70;;;1.40;;
11653;SDS011;5883;48.818;9.114;2023-07-20T07:47:20;2.13;;;1.20;;
11653;SDS011;5883;48.818;9.114;2023-07-20T07:50:05;2.10;;;1.20;;
11653;SDS011;5883;48.818;9.114;2023-07-20T07:52:52;2.75;;;1.15;;
11653;SDS011;5883;48.818;9.114;2023-07-20T07:55:37;3.30;;;1.40;;
11653;SDS011;5883;48.818;9.114;2023-07-20T07:58:22;4.50;;;1.00;;
11653;SDS011;5883;48.818;9.114;2023-07-20T08:01:07;2.22;;;1.42;;
11653;SDS011;5883;48.818;9.114;2023-07-20T08:03:52;4.20;;;1.20;;
11653;SDS011;5883;48.818;9.114;2023-07-20T08:06:37;2.72;;;1.15;;
11653;SDS011;5883;48.818;9.114;2023-07-20T08:09:24;3.92;;;0.95;;
11653;SDS011;5883;48.818;9.114;2023-07-20T08:12:09;5.35;;;1.17;;
11653;SDS011;5883;48.818;9.114;2023-07-20T08:14:54;2.50;;;1.25;;
11653;SDS011;5883;48.818;9.114;2023-07-20T08:17:39;1.10;;;1.00;;
11653;SDS011;5883;48.818;9.114;2023-07-20T08:20:24;4.43;;;1.30;;
11653;SDS011;5883;48.818;9.114;2023-07-20T08:23:10;4.03;;;1.20;;
11653;SDS011;5883;48.818;9.114;2023-07-20T08:25:56;1.45;;;1.05;;
11653;SDS011;5883;48.818;9.114;2023-07-20T08:28:42;5.18;;;1.17;;
11653;SDS011;5883;48.818;9.114;2023-07-20T08:31:27;2.45;;;1.30;;
11653;SDS011;5883;48.818;9.114;2023-07-20T08:34:13;3.22;;;1.27;;
11653;SDS011;5883;48.818;9.114;2023-07-20T08:36:58;3.30;;;1.48;;
11653;SDS011;5883;48.818;9.114;2023-07-20T08:39:43;3.40;;;1.27;;
11653;SDS011;5883;48.818;9.114;2023-07-20T08:42:30;3.67;;;1.20;;
11653;SDS011;5883;48.818;9.114;2023-07-20T08:45:15;3.97;;;1.10;;
11653;SDS011;5883;48.818;9.114;2023-07-20T08:48:01;2.53;;;1.13;;
11653;SDS011;5883;48.818;9.114;2023-07-20T08:50:47;1.65;;;1.17;;
11653;SDS011;5883;48.818;9.114;2023-07-20T08:53:32;3.60;;;1.10;;
11653;SDS011;5883;48.818;9.114;2023-07-20T08:56:17;4.60;;;1.30;;
11653;SDS011;5883;48.818;9.114;2023-07-20T08:59:04;1.10;;;0.80;;
11653;SDS011;5883;48.818;9.114;2023-07-20T09:01:49;4.05;;;1.73;;
11653;SDS011;5883;48.818;9.114;2023-07-20T09:04:36;1.58;;;1.00;;
11653;SDS011;5883;48.818;9.114;2023-07-20T09:07:20;2.65;;;1.10;;
11653;SDS011;5883;48.818;9.114;2023-07-20T09:10:07;1.95;;;1.00;;
11653;SDS011;5883;48.818;9.114;2023-07-20T09:12:52;1.33;;;1.08;;
11653;SDS011;5883;48.818;9.114;2023-07-20T09:15:40;2.97;;;1.00;;
11653;SDS011;5883;48.818;9.114;2023-07-20T09:18:31;4.68;;;1.17;;
11653;SDS011;5883;48.818;9.114;2023-07-20T09:21:18;1.55;;;1.25;;
11653;SDS011;5883;48.818;9.114;2023-07-20T09:24:03;2.35;;;1.10;;
11653;SDS011;5883;48.818;9.114;2023-07-20T09:26:51;1.85;;;1.10;;
11653;SDS011;5883;48.818;9.114;2023-07-20T09:29:44;1.73;;;1.30;;
11653;SDS011;5883;48.818;9.114;2023-07-20T09:32:35;1.52;;;1.27;;
11653;SDS011;5883;48.818;9.114;2023-07-20T09:35:23;1.63;;;1.38;;
11653;SDS011;5883;48.818;9.114;2023-07-20T09:38:09;2.08;;;1.08;;
11653;SDS011;5883;48.818;9.114;2023-07-20T09:40:54;1.35;;;0.98;;
11653;SDS011;5883;48.818;9.114;2023-07-20T09:43:41;1.60;;;1.10;;
11653;SDS011;5883;48.818;9.114;2023-07-20T09:46:40;2.67;;;0.90;;
11653;SDS011;5883;48.818;9.114;2023-07-20T09:49:27;4.07;;;1.40;;
11653;SDS011;5883;48.818;9.114;2023-07-20T09:52:12;3.22;;;1.20;;
11653;SDS011;5883;48.818;9.114;2023-07-20T09:54:57;1.23;;;0.90;;
11653;SDS011;5883;48.818;9.114;2023-07-20T09:57:43;7.10;;;1.67;;
11653;SDS011;5883;48.818;9.114;2023-07-20T10:00:28;1.90;;;1.20;;
11653;SDS011;5883;48.818;9.114;2023-07-20T10:03:16;1.20;;;0.80;;
11653;SDS011;5883;48.818;9.114;2023-07-20T10:06:05;12.50;;;1.02;;
11653;SDS011;5883;48.818;9.114;2023-07-20T10:08:52;2.92;;;1.10;;
11653;SDS011;5883;48.818;9.114;2023-07-20T10:11:37;2.75;;;0.93;;
11653;SDS011;5883;48.818;9.114;2023-07-20T10:14:25;1.20;;;1.00;;
11653;SDS011;5883;48.818;9.114;2023-07-20T10:17:14;1.23;;;0.82;;
11653;SDS011;5883;48.818;9.114;2023-07-20T10:20:00;1.20;;;0.90;;
11653;SDS011;5883;48.818;9.114;2023-07-20T10:22:48;1.30;;;0.85;;
11653;SDS011;5883;48.818;9.114;2023-07-20T10:25:34;4.05;;;1.58;;
11653;SDS011;5883;48.818;9.114;2023-07-20T10:28:21;1.15;;;0.80;;
11653;SDS011;5883;48.818;9.114;2023-07-20T10:31:07;0.90;;;0.80;;
11653;SDS011;5883;48.818;9.114;2023-07-20T10:33:53;1.17;;;0.98;;
11653;SDS011;5883;48.818;9.114;2023-07-20T10:36:43;5.15;;;1.20;;
11653;SDS011;5883;48.818;9.114;2023-07-20T10:39:32;2.10;;;1.15;;
11653;SDS011;5883;48.818;9.114;2023-07-20T10:42:17;1.35;;;1.02;;
11653;SDS011;5883;48.818;9.114;2023-07-20T10:45:04;1.38;;;1.13;;
11653;SDS011;5883;48.818;9.114;2023-07-20T10:47:50;2.17;;;1.20;;
11653;SDS011;5883;48.818;9.114;2023-07-20T10:50:35;2.97;;;0.85;;
11653;SDS011;5883;48.818;9.114;2023-07-20T10:53:21;2.55;;;1.17;;
11653;SDS011;5883;48.818;9.114;2023-07-20T10:56:08;1.00;;;0.80;;
11653;SDS011;5883;48.818;9.114;2023-07-20T10:58:55;1.38;;;1.08;;
11653;SDS011;5883;48.818;9.114;2023-07-20T11:01:41;1.98;;;1.35;;
11653;SDS011;5883;48.818;9.114;2023-07-20T11:04:37;2.47;;;0.90;;
11653;SDS011;5883;48.818;9.114;2023-07-20T11:07:35;2.40;;;0.95;;
11653;SDS011;5883;48.818;9.114;2023-07-20T11:10:22;2.00;;;1.20;;
11653;SDS011;5883;48.818;9.114;2023-07-20T11:13:18;2.60;;;1.10;;
11653;SDS011;5883;48.818;9.114;2023-07-20T11:16:03;2.15;;;1.15;;
11653;SDS011;5883;48.818;9.114;2023-07-20T11:18:49;5.80;;;1.10;;
11653;SDS011;5883;48.818;9.114;2023-07-20T11:21:35;1.23;;;0.90;;
11653;SDS011;5883;48.818;9.114;2023-07-20T11:24:21;4.43;;;1.20;;
11653;SDS011;5883;48.818;9.114;2023-07-20T11:27:06;1.77;;;1.27;;
11653;SDS011;5883;48.818;9.114;2023-07-20T11:29:53;1.35;;;0.82;;
11653;SDS011;5883;48.818;9.114;2023-07-20T11:32:45;2.45;;;1.25;;
11653;SDS011;5883;48.818;9.114;2023-07-20T11:35:34;3.45;;;0.77;;
11653;SDS011;5883;48.818;9.114;2023-07-20T11:38:20;1.88;;;1.10;;
11653;SDS011;5883;48.818;9.114;2023-07-20T11:41:05;1.50;;;0.95;;
11653;SDS011;5883;48.818;9.114;2023-07-20T11:43:50;2.33;;;0.88;;
11653;SDS011;5883;48.818;9.114;2023-07-20T11:46:37;4.13;;;1.10;;
11653;SDS011;5883;48.818;9.114;2023-07-20T11:49:22;1.30;;;1.00;;
11653;SDS011;5883;48.818;9.114;2023-07-20T11:52:08;2.35;;;1.15;;
11653;SDS011;5883;48.818;9.114;2023-07-20T11:54:53;0.98;;;0.82;;
11653;SDS011;5883;48.818;9.114;2023-07-20T11:57:39;1.38;;;1.05;;
11653;SDS011;5883;48.818;9.114;2023-07-20T12:00:26;1.60;;;0.80;;
11653;SDS011;5883;48.818;9.114;2023-07-20T12:03:13;2.00;;;1.00;;
11653;SDS011;5883;48.818;9.114;2023-07-20T12:06:05;1.92;;;1.08;;
11653;SDS011;5883;48.818;9.114;2023-07-20T12:08:52;2.72;;;0.95;;
11653;SDS011;5883;48.818;9.114;2023-07-20T12:11:39;1.38;;;0.85;;
11653;SDS011;5883;48.818;9.114;2023-07-20T12:14:25;4.45;;;1.17;;
11653;SDS011;5883;48.818;9.114;2023-07-20T12:17:10;1.67;;;0.93;;
11653;SDS011;5883;48.818;9.114;2023-07-20T12:19:58;2.10;;;1.20;;
11653;SDS011;5883;48.818;9.114;2023-07-20T12:22:43;2.05;;;0.98;;
11653;SDS011;5883;48.818;9.114;2023-07-20T12:25:32;2.17;;;1.10;;
11653;SDS011;5883;48.818;9.114;2023-07-20T12:28:19;1.40;;;1.00;;
11653;SDS011;5883;48.818;9.114;2023-07-20T12:31:04;1.50;;;0.88;;
11653;SDS011;5883;48.818;9.114;2023-07-20T12:33:50;1.13;;;0.90;;
11653;SDS011;5883;48.818;9.114;2023-07-20T12:36:37;1.10;;;1.00;;
11653;SDS011;5883;48.818;9.114;2023-07-20T12:39:22;1.10;;;1.00;;
11653;SDS011;5883;48.818;9.114;2023-07-20T12:42:07;2.92;;;0.93;;
11653;SDS011;5883;48.818;9.114;2023-07-20T12:44:52;6.07;;;1.27;;
11653;SDS011;5883;48.818;9.114;2023-07-20T12:47:38;3.75;;;1.02;;
11653;SDS011;5883;48.818;9.114;2023-07-20T12:50:23;1.10;;;0.90;;
11653;SDS011;5883;48.818;9.114;2023-07-20T12:53:09;3.47;;;1.25;;
11653;SDS011;5883;48.818;9.114;2023-07-20T12:55:54;1.48;;;1.13;;
11653;SDS011;5883;48.818;9.114;2023-07-20T12:58:40;3.70;;;1.17;;
11653;SDS011;5883;48.818;9.114;2023-07-20T13:01:25;1.10;;;0.85;;
11653;SDS011;5883;48.818;9.114;2023-07-20T13:04:10;3.67;;;1.05;;
11653;SDS011;5883;48.818;9.114;2023-07-20T13:06:56;1.27;;;0.95;;
11653;SDS011;5883;48.818;9.114;2023-07-20T13:09:43;3.03;;;1.08;;
11653;SDS011;5883;48.818;9.114;2023-07-20T13:12:29;1.00;;;0.90;;
11653;SDS011;5883;48.818;9.114;2023-07-20T13:15:14;0.80;;;0.70;;
11653;SDS011;5883;48.818;9.114;2023-07-20T13:18:00;1.88;;;0.93;;
11653;SDS011;5883;48.818;9.114;2023-07-20T13:20:45;1.98;;;1.05;;
11653;SDS011;5883;48.818;9.114;2023-07-20T13:23:31;2.05;;;1.08;;
11653;SDS011;5883;48.818;9.114;2023-07-20T13:26:17;1.40;;;0.82;;
11653;SDS011;5883;48.818;9.114;2023-07-20T13:29:03;1.95;;;1.00;;
11653;SDS011;5883;48.818;9.114;2023-07-20T13:31:48;1.77;;;1.05;;
11653;SDS011;5883;48.818;9.114;2023-07-20T13:34:34;3.05;;;1.00;;
11653;SDS011;5883;48.818;9.114;2023-07-20T13:37:19;4.07;;;1.10;;
11653;SDS011;5883;48.818;9.114;2023-07-20T13:40:06;1.80;;;0.80;;
11653;SDS011;5883;48.818;9.114;2023-07-20T13:42:53;2.05;;;1.20;;
11653;SDS011;5883;48.818;9.114;2023-07-20T13:45:38;1.58;;;1.10;;
11653;SDS011;5883;48.818;9.114;2023-07-20T13:48:23;1.05;;;0.95;;
11653;SDS011;5883;48.818;9.114;2023-07-20T13:51:09;7.95;;;1.05;;
11653;SDS011;5883;48.818;9.114;2023-07-20T13:53:54;3.70;;;1.10;;
11653;SDS011;5883;48.818;9.114;2023-07-20T13:56:40;3.22;;;0.95;;
11653;SDS011;5883;48.818;9.114;2023-07-20T13:59:26;1.35;;;1.00;;
11653;SDS011;5883;48.818;9.114;2023-07-20T14:02:13;0.90;;;0.90;;
11653;SDS011;5883;48.818;9.114;2023-07-20T14:04:58;2.30;;;1.00;;
11653;SDS011;5883;48.818;9.114;2023-07-20T14:07:44;2.65;;;0.90;;
11653;SDS011;5883;48.818;9.114;2023-07-20T14:10:30;2.00;;;1.20;;
11653;SDS011;5883;48.818;9.114;2023-07-20T14:13:15;2.33;;;1.27;;
11653;SDS011;5883;48.818;9.114;2023-07-20T14:16:02;0.93;;;0.80;;
11653;SDS011;5883;48.818;9.114;2023-07-20T14:18:48;2.33;;;1.00;;
11653;SDS011;5883;48.818;9.114;2023-07-20T14:21:33;1.35;;;1.05;;
11653;SDS011;5883;48.818;9.114;2023-07-20T14:24:19;1.05;;;0.82;;
11653;SDS011;5883;48.818;9.114;2023-07-20T14:27:04;3.05;;;1.00;;
11653;SDS011;5883;48.818;9.114;2023-07-20T14:29:50;1.23;;;0.90;;
11653;SDS011;5883;48.818;9.114;2023-07-20T14:32:38;2.88;;;1.05;;
11653;SDS011;5883;48.818;9.114;2023-07-20T14:35:24;1.13;;;0.88;;
11653;SDS011;5883;48.818;9.114;2023-07-20T14:38:09;4.20;;;1.02;;
11653;SDS011;5883;48.818;9.114;2023-07-20T14:40:54;1.88;;;1.15;;
11653;SDS011;5883;48.818;9.114;2023-07-20T14:43:40;2.72;;;0.85;;
11653;SDS011;5883;48.818;9.114;2023-07-20T14:46:25;1.00;;;0.90;;
11653;SDS011;5883;48.818;9.114;2023-07-20T14:49:11;2.40;;;1.13;;
11653;SDS011;5883;48.818;9.114;2023-07-20T14:51:57;2.13;;;0.88;;
11653;SDS011;5883;48.818;9.114;2023-07-20T14:54:42;2.75;;;0.90;;
11653;SDS011;5883;48.818;9.114;2023-07-20T14:57:27;4.00;;;0.88;;
11653;SDS011;5883;48.818;9.114;2023-07-20T15:00:13;2.58;;;0.82;;
11653;SDS011;5883;48.818;9.114;2023-07-20T15:02:58;1.65;;;1.08;;
11653;SDS011;5883;48.818;9.114;2023-07-20T15:05:45;3.15;;;0.90;;
11653;SDS011;5883;48.818;9.114;2023-07-20T15:08:30;1.00;;;0.80;;
11653;SDS011;5883;48.818;9.114;2023-07-20T15:11:15;0.88;;;0.80;;
11653;SDS011;5883;48.818;9.114;2023-07-20T15:14:01;1.05;;;0.85;;
11653;SDS011;5883;48.818;9.114;2023-07-20T15:16:46;1.55;;;1.15;;
11653;SDS011;5883;48.818;9.114;2023-07-20T15:19:32;2.05;;;1.20;;
11653;SDS011;5883;48.818;9.114;2023-07-20T15:22:19;1.25;;;0.85;;
11653;SDS011;5883;48.818;9.114;2023-07-20T15:25:06;1.17;;;0.80;;
11653;SDS011;5883;48.818;9.114;2023-07-20T15:27:51;8.05;;;1.13;;
11653;SDS011;5883;48.818;9.114;2023-07-20T15:30:36;1.13;;;0.80;;
11653;SDS011;5883;48.818;9.114;2023-07-20T15:33:21;2.85;;;1.15;;
11653;SDS011;5883;48.818;9.114;2023-07-20T15:36:06;1.58;;;0.95;;
11653;SDS011;5883;48.818;9.114;2023-07-20T15:38:53;1.50;;;1.30;;
11653;SDS011;5883;48.818;9.114;2023-07-20T15:41:39;2.28;;;1.30;;
11653;SDS011;5883;48.818;9.114;2023-07-20T15:44:28;2.28;;;1.08;;
11653;SDS011;5883;48.818;9.114;2023-07-20T15:47:18;1.02;;;0.80;;
11653;SDS011;5883;48.818;9.114;2023-07-20T15:50:04;2.53;;;1.20;;
11653;SDS011;5883;48.818;9.114;2023-07-20T15:52:50;8.68;;;1.70;;
11653;SDS011;5883;48.818;9.114;2023-07-20T15:55:41;0.93;;;0.80;;
11653;SDS011;5883;48.818;9.114;2023-07-20T15:58:26;3.00;;;1.00;;
11653;SDS011;5883;48.818;9.114;2023-07-20T16:01:12;1.10;;;1.00;;
11653;SDS011;5883;48.818;9.114;2023-07-20T16:03:57;0.88;;;0.88;;
11653;SDS011;5883;48.818;9.114;2023-07-20T16:06:42;1.33;;;0.90;;
11653;SDS011;5883;48.818;9.114;2023-07-20T16:09:27;5.47;;;1.00;;
11653;SDS011;5883;48.818;9.114;2023-07-20T16:12:14;1.17;;;1.08;;
11653;SDS011;5883;48.818;9.114;2023-07-20T16:14:59;1.00;;;0.90;;
11653;SDS011;5883;48.818;9.114;2023-07-20T16:17:44;2.78;;;1.00;;
11653;SDS011;5883;48.818;9.114;2023-07-20T16:20:29;2.55;;;1.00;;
11653;SDS011;5883;48.818;9.114;2023-07-20T16:23:14;1.20;;;0.68;;
11653;SDS011;5883;48.818;9.114;2023-07-20T16:25:58;1.55;;;0.93;;
11653;SDS011;5883;48.818;9.114;2023-07-20T16:28:45;3.17;;;1.30;;
11653;SDS011;5883;48.818;9.114;2023-07-20T16:31:30;1.80;;;1.05;;
11653;SDS011;5883;48.818;9.114;2023-07-20T16:34:15;2.22;;;1.25;;
11653;SDS011;5883;48.818;9.114;2023-07-20T16:37:01;1.30;;;1.02;;
11653;SDS011;5883;48.818;9.114;2023-07-20T16:39:49;2.63;;;1.30;;
11653;SDS011;5883;48.818;9.114;2023-07-20T16:42:34;1.48;;;0.90;;
11653;SDS011;5883;48.818;9.114;2023-07-20T16:45:21;1.17;;;0.98;;
11653;SDS011;5883;48.818;9.114;2023-07-20T16:48:07;0.93;;;0.80;;
11653;SDS011;5883;48.818;9.114;2023-07-20T16:50:53;3.63;;;0.90;;
11653;SDS011;5883;48.818;9.114;2023-07-20T16:53:38;1.45;;;1.10;;
11653;SDS011;5883;48.818;9.114;2023-07-20T16:56:23;1.27;;;0.95;;